createdAt,value
2023-05-17T00:01:30.365Z,1.92
2023-05-17T00:03:58.157Z,2.30
2023-05-17T00:06:26.467Z,2.08
2023-05-17T00:08:54.405Z,2.13
2023-05-17T00:11:22.418Z,2.40
2023-05-17T00:13:50.222Z,2.83
2023-05-17T00:16:19.581Z,2.50
2023-05-17T00:18:47.537Z,2.60
2023-05-17T00:21:15.466Z,2.20
2023-05-17T00:23:43.387Z,2.10
2023-05-17T00:26:11.269Z,1.90
2023-05-17T00:28:39.149Z,1.90
2023-05-17T00:31:07.529Z,3.05
2023-05-17T00:33:36.691Z,2.10
2023-05-17T00:36:04.965Z,2.35
2023-05-17T00:38:32.956Z,2.03
2023-05-17T00:41:00.886Z,2.83
2023-05-17T00:43:28.792Z,3.35
2023-05-17T00:45:56.649Z,2.95
2023-05-17T00:48:26.383Z,2.90
2023-05-17T00:50:57.349Z,2.15
2023-05-17T00:53:25.674Z,2.15
2023-05-17T00:55:55.124Z,3.08
2023-05-17T00:58:24.013Z,2.55
2023-05-17T01:00:52.308Z,2.53
2023-05-17T01:03:22.647Z,2.30
2023-05-17T01:05:50.905Z,1.85
2023-05-17T01:08:20.413Z,2.25
2023-05-17T01:10:58.351Z,2.75
2023-05-17T01:13:33.443Z,2.20
2023-05-17T01:16:08.090Z,2.30
2023-05-17T01:18:41.287Z,2.38
2023-05-17T01:21:19.252Z,2.22
2023-05-17T01:24:00.662Z,2.38
2023-05-17T01:26:39.400Z,3.70
2023-05-17T01:29:10.294Z,2.17
2023-05-17T01:31:38.357Z,2.20
2023-05-17T01:34:08.859Z,2.38
2023-05-17T01:36:37.300Z,2.38
2023-05-17T01:39:05.242Z,2.28
2023-05-17T01:41:41.166Z,3.05
2023-05-17T01:44:19.885Z,2.72
2023-05-17T01:46:48.074Z,2.30
2023-05-17T01:49:23.024Z,2.33
2023-05-17T01:51:58.769Z,2.95
2023-05-17T01:54:32.657Z,2.45
2023-05-17T01:57:06.011Z,2.75
2023-05-17T01:59:36.156Z,2.50
2023-05-17T02:02:08.706Z,2.63
2023-05-17T02:04:37.160Z,2.83
2023-05-17T02:07:05.368Z,3.28
2023-05-17T02:09:33.219Z,2.72
2023-05-17T02:43:36.833Z,3.05
2023-05-17T02:46:05.052Z,2.83
2023-05-17T02:48:32.945Z,2.70
2023-05-17T02:51:00.893Z,3.08
2023-05-17T02:53:28.722Z,2.85
2023-05-17T02:55:58.248Z,2.90
2023-05-17T02:58:26.344Z,3.13
2023-05-17T03:00:55.643Z,2.10
2023-05-17T03:03:23.778Z,2.60
2023-05-17T03:05:51.774Z,2.45
2023-05-17T03:08:19.593Z,2.00
2023-05-17T03:10:47.440Z,2.72
2023-05-17T03:13:15.209Z,3.20
2023-05-17T03:15:43.029Z,2.47
2023-05-17T03:18:12.575Z,2.83
2023-05-17T03:20:40.632Z,3.20
2023-05-17T03:23:08.474Z,2.85
2023-05-17T03:25:36.360Z,2.45
2023-05-17T03:28:04.201Z,2.65
2023-05-17T03:30:32.174Z,2.90
2023-05-17T03:33:00.127Z,2.53
2023-05-17T03:35:29.668Z,2.30
2023-05-17T03:37:57.636Z,2.20
2023-05-17T03:40:26.231Z,2.95
2023-05-17T03:42:54.354Z,3.90
2023-05-17T03:45:22.303Z,2.58
2023-05-17T03:47:50.260Z,3.15
2023-05-17T03:50:18.428Z,3.00
2023-05-17T03:52:47.639Z,2.53
2023-05-17T03:55:15.630Z,3.05
2023-05-17T03:57:43.462Z,2.95
2023-05-17T04:00:12.777Z,3.47
2023-05-17T04:02:41.143Z,3.30
2023-05-17T04:05:09.525Z,3.25
2023-05-17T04:07:37.372Z,2.80
2023-05-17T04:10:07.955Z,2.47
2023-05-17T04:12:36.314Z,3.47
2023-05-17T04:15:05.130Z,2.80
2023-05-17T04:17:32.968Z,2.70
2023-05-17T04:20:00.851Z,3.40
2023-05-17T04:22:28.641Z,2.75
2023-05-17T04:24:56.427Z,3.28
2023-05-17T04:27:25.777Z,2.60
2023-05-17T04:29:53.596Z,3.03
2023-05-17T04:32:21.498Z,3.17
2023-05-17T04:34:49.402Z,3.25
2023-05-17T04:37:17.267Z,3.05
2023-05-17T04:39:45.080Z,3.90
2023-05-17T04:42:13.008Z,3.10
2023-05-17T04:44:42.165Z,3.53
2023-05-17T04:47:10.142Z,2.92
2023-05-17T04:49:38.033Z,4.07
2023-05-17T04:52:06.558Z,4.13
2023-05-17T04:54:34.653Z,3.22
2023-05-17T04:57:03.661Z,4.28
2023-05-17T04:59:31.493Z,3.63
2023-05-17T05:02:00.974Z,3.28
2023-05-17T05:04:28.759Z,3.22
2023-05-17T05:06:56.584Z,4.25
2023-05-17T05:09:24.426Z,3.60
2023-05-17T05:11:52.355Z,4.05
2023-05-17T05:14:20.200Z,3.35
2023-05-17T05:16:48.090Z,4.10
2023-05-17T05:19:17.628Z,3.88
2023-05-17T05:21:46.953Z,4.40
2023-05-17T05:24:15.132Z,4.15
2023-05-17T05:26:43.000Z,4.35
2023-05-17T05:29:10.840Z,3.85
2023-05-17T05:31:38.606Z,3.90
2023-05-17T05:34:06.577Z,4.40
2023-05-17T05:36:38.231Z,4.65
2023-05-17T05:39:07.852Z,3.92
2023-05-17T05:41:36.988Z,4.50
2023-05-17T05:44:04.994Z,4.65
2023-05-17T05:46:32.867Z,4.88
2023-05-17T05:49:01.027Z,4.68
2023-05-17T05:51:28.938Z,5.32
2023-05-17T05:53:58.674Z,4.63
2023-05-17T05:56:28.106Z,4.40
2023-05-17T05:58:56.054Z,4.45
2023-05-17T06:01:25.437Z,4.72
2023-05-17T06:03:53.292Z,5.22
2023-05-17T06:06:21.324Z,4.45
2023-05-17T06:08:49.289Z,3.90
2023-05-17T06:11:20.467Z,5.18
2023-05-17T06:13:48.435Z,5.55
2023-05-17T06:16:16.402Z,5.25
2023-05-17T06:18:44.419Z,4.32
2023-05-17T06:21:13.451Z,4.53
2023-05-17T06:23:41.596Z,3.35
2023-05-17T06:26:10.889Z,3.47
2023-05-17T06:28:40.254Z,4.03
2023-05-17T06:31:08.310Z,4.07
2023-05-17T06:33:36.192Z,3.13
2023-05-17T06:36:04.073Z,4.47
2023-05-17T06:38:31.877Z,3.90
2023-05-17T06:40:59.666Z,3.78
2023-05-17T06:43:27.540Z,4.07
2023-05-17T06:45:56.723Z,3.30
2023-05-17T06:48:25.576Z,3.95
2023-05-17T06:50:53.761Z,3.15
2023-05-17T06:53:21.933Z,3.40
2023-05-17T06:55:49.943Z,3.00
2023-05-17T06:58:18.024Z,2.88
2023-05-17T07:00:46.058Z,3.10
2023-05-17T07:03:16.385Z,2.83
2023-05-17T07:05:44.509Z,3.33
2023-05-17T07:08:12.768Z,2.40
2023-05-17T07:10:41.063Z,2.55
2023-05-17T07:13:09.188Z,2.78
2023-05-17T07:15:37.101Z,3.13
2023-05-17T07:18:05.461Z,3.75
2023-05-17T07:20:34.772Z,2.40
2023-05-17T07:23:02.756Z,3.47
2023-05-17T07:25:30.857Z,2.92
2023-05-17T07:27:58.992Z,2.38
2023-05-17T07:30:27.381Z,3.33
2023-05-17T07:32:55.332Z,2.83
2023-05-17T07:35:23.248Z,3.08
2023-05-17T07:37:52.615Z,2.65
2023-05-17T07:40:20.597Z,3.55
2023-05-17T07:42:48.506Z,2.47
2023-05-17T07:45:16.547Z,4.57
2023-05-17T07:47:44.482Z,2.72
2023-05-17T07:50:12.828Z,3.10
2023-05-17T07:52:41.392Z,3.10
2023-05-17T07:55:11.815Z,3.42
2023-05-17T07:57:39.911Z,2.67
2023-05-17T08:00:13.112Z,2.40
2023-05-17T08:02:41.832Z,3.05
2023-05-17T08:05:11.057Z,2.97
2023-05-17T08:07:39.356Z,2.50
2023-05-17T08:10:08.097Z,3.15
2023-05-17T08:12:37.473Z,2.42
2023-05-17T08:15:06.171Z,2.10
2023-05-17T08:17:34.104Z,2.03
2023-05-17T08:20:04.875Z,3.35
2023-05-17T08:22:32.799Z,2.53
2023-05-17T08:25:00.719Z,2.90
2023-05-17T08:27:31.264Z,2.63
2023-05-17T08:30:00.826Z,2.70
2023-05-17T08:32:29.272Z,2.90
2023-05-17T08:34:57.901Z,2.55
2023-05-17T08:37:25.796Z,2.78
2023-05-17T08:39:53.702Z,2.50
2023-05-17T08:42:25.214Z,2.17
2023-05-17T08:44:53.986Z,2.97
2023-05-17T08:47:32.262Z,2.20
2023-05-17T08:50:00.740Z,2.55
2023-05-17T08:52:32.244Z,3.22
2023-05-17T08:55:01.242Z,2.38
2023-05-17T08:57:31.502Z,2.45
2023-05-17T09:00:00.445Z,2.10
2023-05-17T09:02:32.086Z,2.20
2023-05-17T09:05:01.045Z,1.90
2023-05-17T09:07:28.907Z,2.25
2023-05-17T09:09:56.808Z,2.53
2023-05-17T09:12:25.829Z,2.08
2023-05-17T09:14:53.751Z,2.55
2023-05-17T09:17:22.950Z,2.53
2023-05-17T09:19:52.375Z,2.50
2023-05-17T09:22:21.709Z,2.58
2023-05-17T09:24:50.763Z,2.20
2023-05-17T09:27:19.635Z,2.75
2023-05-17T09:29:48.180Z,2.78
2023-05-17T09:32:17.492Z,2.75
2023-05-17T09:34:47.045Z,1.80
2023-05-17T09:37:17.881Z,1.90
2023-05-17T09:39:47.679Z,3.13
2023-05-17T09:42:16.859Z,2.33
2023-05-17T09:44:49.649Z,2.17
2023-05-17T09:47:25.099Z,1.83
2023-05-17T09:49:53.248Z,2.17
2023-05-17T09:52:23.022Z,2.28
2023-05-17T09:54:55.299Z,1.98
2023-05-17T09:57:23.818Z,1.80
2023-05-17T09:59:53.119Z,2.85
2023-05-17T10:02:28.971Z,1.90
2023-05-17T10:04:58.543Z,2.00
2023-05-17T10:07:28.180Z,2.35
2023-05-17T10:09:57.523Z,2.13
2023-05-17T10:12:29.515Z,2.53
2023-05-17T10:14:59.980Z,2.05
2023-05-17T10:17:29.845Z,2.40
2023-05-17T10:19:58.997Z,1.73
2023-05-17T10:22:29.360Z,2.15
2023-05-17T10:24:58.554Z,2.50
2023-05-17T10:27:27.143Z,1.88
2023-05-17T10:29:56.126Z,1.73
2023-05-17T10:32:27.288Z,1.65
2023-05-17T10:35:09.252Z,2.00
2023-05-17T10:37:41.759Z,2.10
2023-05-17T10:40:14.271Z,2.22
2023-05-17T10:42:45.940Z,1.73
2023-05-17T10:45:14.753Z,1.92
2023-05-17T10:47:45.115Z,2.42
2023-05-17T10:50:15.474Z,2.05
2023-05-17T10:52:56.010Z,2.13
2023-05-17T10:55:26.171Z,2.80
2023-05-17T10:58:19.944Z,2.80
2023-05-17T11:00:52.548Z,4.05
2023-05-17T11:03:23.627Z,1.90
2023-05-17T11:06:23.415Z,1.90
2023-05-17T11:12:07.258Z,2.10
2023-05-17T11:14:47.414Z,2.50
2023-05-17T11:17:15.883Z,2.00
2023-05-17T11:19:51.584Z,1.73
2023-05-17T11:22:19.757Z,2.73
2023-05-17T11:24:53.091Z,1.75
2023-05-17T11:27:27.578Z,2.00
2023-05-17T11:29:56.600Z,2.03
2023-05-17T11:32:29.305Z,2.08
2023-05-17T11:34:57.698Z,2.15
2023-05-17T11:37:29.740Z,1.90
2023-05-17T11:40:06.003Z,2.70
2023-05-17T11:42:35.838Z,3.17
2023-05-17T11:45:04.156Z,2.97
2023-05-17T11:47:32.437Z,2.22
2023-05-17T11:50:03.144Z,2.15
2023-05-17T11:52:32.579Z,2.42
2023-05-17T11:55:01.519Z,2.75
2023-05-17T11:57:31.353Z,1.80
2023-05-17T12:00:05.895Z,2.58
2023-05-17T12:02:34.138Z,1.80
2023-05-17T12:05:02.373Z,1.83
2023-05-17T12:07:30.648Z,2.05
2023-05-17T12:09:58.742Z,1.77
2023-05-17T12:12:29.864Z,2.05
2023-05-17T12:14:58.775Z,2.25
2023-05-17T12:17:36.899Z,1.80
2023-05-17T12:20:09.131Z,1.90
2023-05-17T12:22:52.850Z,2.08
2023-05-17T12:25:23.407Z,1.40
2023-05-17T12:27:51.588Z,2.50
2023-05-17T12:30:20.407Z,1.55
2023-05-17T12:32:49.753Z,1.60
2023-05-17T12:35:17.758Z,1.60
2023-05-17T12:37:45.933Z,1.75
2023-05-17T12:40:14.222Z,1.33
2023-05-17T12:42:43.831Z,2.42
2023-05-17T12:45:13.699Z,1.73
2023-05-17T12:47:41.574Z,1.60
2023-05-17T12:50:12.397Z,1.50
2023-05-17T12:52:42.092Z,1.23
2023-05-17T12:55:14.268Z,1.63
2023-05-17T12:57:50.298Z,1.30
2023-05-17T13:00:19.358Z,1.20
2023-05-17T13:02:47.425Z,1.45
2023-05-17T13:05:18.600Z,1.80
2023-05-17T13:07:47.396Z,1.70
2023-05-17T13:10:23.028Z,1.80
2023-05-17T13:12:58.166Z,1.00
2023-05-17T13:15:30.372Z,1.73
2023-05-17T13:17:58.896Z,1.42
2023-05-17T13:20:29.210Z,1.55
2023-05-17T13:22:57.478Z,1.63
2023-05-17T13:25:25.568Z,1.85
2023-05-17T13:27:55.413Z,1.20
2023-05-17T13:30:23.455Z,1.73
2023-05-17T13:32:51.731Z,1.70
2023-05-17T13:35:19.527Z,1.92
2023-05-17T13:37:48.839Z,1.58
2023-05-17T13:40:16.912Z,2.00
2023-05-17T13:42:44.694Z,1.63
2023-05-17T13:45:13.641Z,1.40
2023-05-17T13:47:41.988Z,1.88
2023-05-17T13:50:12.062Z,1.45
2023-05-17T13:52:39.980Z,2.20
2023-05-17T13:55:09.930Z,1.52
2023-05-17T13:57:37.745Z,1.42
2023-05-17T14:00:06.876Z,1.92
2023-05-17T14:02:34.799Z,1.88
2023-05-17T14:05:02.601Z,2.00
2023-05-17T14:07:30.352Z,2.20
2023-05-17T14:09:58.252Z,1.77
2023-05-17T14:12:27.415Z,1.25
2023-05-17T14:14:55.294Z,1.33
2023-05-17T14:17:23.094Z,1.50
2023-05-17T14:19:51.073Z,1.98
2023-05-17T14:22:19.030Z,2.00
2023-05-17T14:24:46.842Z,2.28
2023-05-17T14:27:14.640Z,2.65
2023-05-17T14:29:43.801Z,2.33
2023-05-17T14:32:12.912Z,2.80
2023-05-17T14:34:40.855Z,2.58
2023-05-17T14:37:08.727Z,2.00
2023-05-17T14:39:36.814Z,1.90
2023-05-17T14:42:05.263Z,2.30
2023-05-17T14:44:34.689Z,1.90
2023-05-17T14:47:03.801Z,2.00
2023-05-17T14:49:31.570Z,2.00
2023-05-17T14:51:59.383Z,2.28
2023-05-17T14:54:29.754Z,1.75
2023-05-17T14:56:57.651Z,2.08
2023-05-17T14:59:26.207Z,1.90
2023-05-17T15:01:54.070Z,1.88
2023-05-17T15:04:23.277Z,1.98
2023-05-17T15:06:51.056Z,1.80
2023-05-17T15:09:18.980Z,2.17
2023-05-17T15:11:46.925Z,2.05
2023-05-17T15:14:19.092Z,7.65
2023-05-17T15:16:47.070Z,12.38
2023-05-17T15:19:15.439Z,9.00
2023-05-17T15:21:44.864Z,5.50
2023-05-17T15:24:14.367Z,4.13
2023-05-17T15:26:44.397Z,4.32
2023-05-17T15:29:12.228Z,3.40
2023-05-17T15:31:40.068Z,3.20
2023-05-17T15:34:08.670Z,2.92
2023-05-17T15:36:36.577Z,3.10
2023-05-17T15:39:06.017Z,3.00
2023-05-17T15:41:33.755Z,2.85
2023-05-17T15:44:01.782Z,2.33
2023-05-17T15:46:29.556Z,2.10
2023-05-17T15:48:57.907Z,2.20
2023-05-17T15:51:25.739Z,2.55
2023-05-17T15:53:53.540Z,1.85
2023-05-17T15:56:23.229Z,2.00
2023-05-17T15:58:51.605Z,1.88
2023-05-17T16:01:19.641Z,1.80
2023-05-17T16:03:47.556Z,1.52
2023-05-17T16:06:15.711Z,1.85
2023-05-17T16:08:43.628Z,2.30
2023-05-17T16:11:11.403Z,2.13
2023-05-17T16:13:40.576Z,1.98
2023-05-17T16:16:08.362Z,2.17
2023-05-17T16:18:36.226Z,1.88
2023-05-17T16:21:05.393Z,2.20
2023-05-17T16:23:33.580Z,1.58
2023-05-17T16:26:01.494Z,1.90
2023-05-17T16:28:29.443Z,2.45
2023-05-17T16:30:58.692Z,1.70
2023-05-17T16:33:26.780Z,1.73
2023-05-17T16:35:54.926Z,1.80
2023-05-17T16:38:22.701Z,2.30
2023-05-17T16:40:50.489Z,2.03
2023-05-17T16:43:18.256Z,1.58
2023-05-17T16:45:46.453Z,2.00
2023-05-17T16:48:16.052Z,2.30
2023-05-17T16:50:43.946Z,2.15
2023-05-17T16:53:12.028Z,1.73
2023-05-17T16:55:39.789Z,1.60
2023-05-17T16:58:07.564Z,2.25
2023-05-17T17:00:35.735Z,2.40
2023-05-17T17:03:04.731Z,1.92
2023-05-17T17:05:35.025Z,3.80
2023-05-17T17:08:02.845Z,2.00
2023-05-17T17:10:31.071Z,1.80
2023-05-17T17:12:59.135Z,2.08
2023-05-17T17:15:27.361Z,2.15
2023-05-17T17:17:55.181Z,1.52
2023-05-17T17:20:23.155Z,2.08
2023-05-17T17:22:52.283Z,2.22
2023-05-17T17:25:20.206Z,2.22
2023-05-17T17:27:48.034Z,2.22
2023-05-17T17:30:16.103Z,2.13
2023-05-17T17:32:43.965Z,2.40
2023-05-17T17:35:11.784Z,2.53
2023-05-17T17:37:39.532Z,1.45
2023-05-17T17:40:10.346Z,1.63
2023-05-17T17:42:38.148Z,1.63
2023-05-17T17:45:06.992Z,2.17
2023-05-17T17:47:34.795Z,2.25
2023-05-17T17:50:02.723Z,2.15
2023-05-17T17:52:30.554Z,2.38
2023-05-17T17:54:58.337Z,2.13
2023-05-17T17:57:27.513Z,1.83
2023-05-17T17:59:56.206Z,2.38
2023-05-17T18:02:23.968Z,2.20
2023-05-17T18:04:51.778Z,3.42
2023-05-17T18:07:19.705Z,2.30
2023-05-17T18:09:47.480Z,1.90
2023-05-17T18:12:15.358Z,2.17
2023-05-17T18:14:44.512Z,1.75
2023-05-17T18:17:12.279Z,1.90
2023-05-17T18:19:40.085Z,2.58
2023-05-17T18:22:07.875Z,1.85
2023-05-17T18:24:35.669Z,2.22
2023-05-17T18:27:03.654Z,2.22
2023-05-17T18:29:31.523Z,1.83
2023-05-17T18:32:01.620Z,2.13
2023-05-17T18:34:29.464Z,2.00
2023-05-17T18:36:57.210Z,2.47
2023-05-17T18:39:25.027Z,2.65
2023-05-17T18:41:52.845Z,1.67
2023-05-17T18:44:20.852Z,2.10
2023-05-17T18:46:49.616Z,2.08
2023-05-17T18:49:18.767Z,2.40
2023-05-17T18:51:46.565Z,3.30
2023-05-17T18:54:14.474Z,2.40
2023-05-17T18:56:42.209Z,2.60
2023-05-17T18:59:09.975Z,2.38
2023-05-17T19:01:38.028Z,1.98
2023-05-17T19:04:05.898Z,2.47
2023-05-17T19:06:35.109Z,1.85
2023-05-17T19:09:02.970Z,1.95
2023-05-17T19:11:30.769Z,1.92
2023-05-17T19:13:58.595Z,2.28
2023-05-17T19:16:26.459Z,2.30
2023-05-17T19:18:54.294Z,2.08
2023-05-17T19:21:22.200Z,2.20
2023-05-17T19:23:51.307Z,1.75
2023-05-17T19:26:19.117Z,2.17
2023-05-17T19:28:46.870Z,2.20
2023-05-17T19:31:14.605Z,2.10
2023-05-17T19:33:42.404Z,2.33
2023-05-17T19:36:10.169Z,1.95
2023-05-17T19:38:37.970Z,2.30
2023-05-17T19:41:07.481Z,2.28
2023-05-17T19:43:35.757Z,2.42
2023-05-17T19:46:03.862Z,1.90
2023-05-17T19:48:31.676Z,2.63
2023-05-17T19:50:59.489Z,2.25
2023-05-17T19:53:28.637Z,1.90
2023-05-17T19:56:05.571Z,2.65
2023-05-17T19:58:35.043Z,2.00
2023-05-17T20:01:02.869Z,2.45
2023-05-17T20:03:30.869Z,2.95
2023-05-17T20:05:58.727Z,3.10
2023-05-17T20:08:26.507Z,1.90
2023-05-17T20:10:54.271Z,2.17
2023-05-17T20:13:24.781Z,2.67
2023-05-17T20:15:53.937Z,2.20
2023-05-17T20:18:22.140Z,3.30
2023-05-17T20:20:50.784Z,2.22
2023-05-17T20:23:18.642Z,2.55
2023-05-17T20:25:46.381Z,2.40
2023-05-17T20:28:14.118Z,2.45
2023-05-17T20:30:44.575Z,2.70
2023-05-17T20:33:13.951Z,2.25
2023-05-17T20:35:41.670Z,2.53
2023-05-17T20:38:09.698Z,2.38
2023-05-17T20:40:37.614Z,2.50
2023-05-17T20:43:09.733Z,2.05
2023-05-17T20:45:37.752Z,2.80
2023-05-17T20:48:05.592Z,2.75
2023-05-17T20:50:37.164Z,2.92
2023-05-17T20:53:04.934Z,2.88
2023-05-17T20:55:32.660Z,2.13
2023-05-17T20:58:00.394Z,2.80
2023-05-17T21:00:28.488Z,2.75
2023-05-17T21:02:56.479Z,2.83
2023-05-17T21:05:24.440Z,2.75
2023-05-17T21:07:53.559Z,2.65
2023-05-17T21:10:21.277Z,2.10
2023-05-17T21:12:49.058Z,2.72
2023-05-17T21:15:17.490Z,2.80
2023-05-17T21:17:45.470Z,2.83
2023-05-17T21:20:13.859Z,2.60
2023-05-17T21:22:41.692Z,2.42
2023-05-17T21:25:11.349Z,2.42
2023-05-17T21:27:39.085Z,1.85
2023-05-17T21:30:08.263Z,3.00
2023-05-17T21:32:36.107Z,2.47
2023-05-17T21:35:04.091Z,2.20
2023-05-17T21:37:31.815Z,2.35
2023-05-17T21:39:59.576Z,2.60
2023-05-17T21:42:28.691Z,2.67
2023-05-17T21:44:56.481Z,2.47
2023-05-17T21:47:24.980Z,2.17
2023-05-17T21:49:52.849Z,2.50
2023-05-17T21:52:20.649Z,2.15
2023-05-17T21:54:48.688Z,2.58
2023-05-17T21:57:16.410Z,2.42
2023-05-17T21:59:46.022Z,2.10
2023-05-17T22:02:13.925Z,2.35
2023-05-17T22:04:41.747Z,2.80
2023-05-17T22:07:10.291Z,2.55
2023-05-17T22:09:38.121Z,3.63
2023-05-17T22:12:08.428Z,3.00
2023-05-17T22:14:36.502Z,2.05
2023-05-17T22:17:08.529Z,2.30
2023-05-17T22:19:40.371Z,2.03
2023-05-17T22:22:08.689Z,2.72
2023-05-17T22:24:36.483Z,2.60
2023-05-17T22:27:04.814Z,2.70
2023-05-17T22:29:33.246Z,2.40
2023-05-17T22:32:01.142Z,2.35
2023-05-17T22:34:30.381Z,2.50
2023-05-17T22:36:58.362Z,2.42
2023-05-17T22:39:26.123Z,2.47
2023-05-17T22:41:53.909Z,2.78
2023-05-17T22:44:22.135Z,2.45
2023-05-17T22:46:49.962Z,2.80
2023-05-17T22:49:18.515Z,2.67
2023-05-17T22:51:47.863Z,2.58
2023-05-17T22:54:15.827Z,2.35
2023-05-17T22:56:43.580Z,2.45
2023-05-17T22:59:11.589Z,2.40
2023-05-17T23:01:39.457Z,2.42
2023-05-17T23:04:07.679Z,2.35
2023-05-17T23:06:35.539Z,2.83
2023-05-17T23:09:05.419Z,3.25
2023-05-17T23:11:35.040Z,2.33
2023-05-17T23:14:02.938Z,2.63
2023-05-17T23:16:30.762Z,2.28
2023-05-17T23:19:00.120Z,3.08
2023-05-17T23:21:27.964Z,2.20
2023-05-17T23:23:56.035Z,2.45
2023-05-17T23:26:25.153Z,2.20
2023-05-17T23:28:53.622Z,1.90
2023-05-17T23:31:21.739Z,3.08
2023-05-17T23:33:49.539Z,2.20
2023-05-17T23:36:17.305Z,2.20
2023-05-17T23:38:45.015Z,2.83
2023-05-17T23:41:17.925Z,2.75
2023-05-17T23:43:47.731Z,2.90
2023-05-17T23:46:19.992Z,2.72
2023-05-17T23:48:50.430Z,2.25
2023-05-17T23:51:19.827Z,2.75
2023-05-17T23:53:48.975Z,2.08
2023-05-17T23:56:17.773Z,3.40
2023-05-17T23:58:47.204Z,2.00
